Time;durP1;ratioP1;P1;durP2;ratioP2;P2;SDS_P1;SDS_P2;PMS_P1;PMS_P2;Temp;Humidity;BMP_temperature;BMP_pressure;BME280_temperature;BME280_humidity;BME280_pressure;Samples;Min_cycle;Max_cycle;Signal;HPM_P1;HPM_P2
2022/04/25 00:02:26;;;;;;;7.47;6.67;;;;;;;10.21;59.12;98744.87;1780656;79;21238;-44
2022/04/25 00:04:52;;;;;;;9.45;7.22;;;;;;;10.22;59.06;98742.34;1784785;80;21032;-44
2022/04/25 00:07:19;;;;;;;8.40;6.70;;;;;;;10.22;59.09;98751.25;1776548;79;20976;-44
2022/04/25 00:09:46;;;;;;;7.75;6.70;;;;;;;10.22;58.99;98753.17;1785287;79;21020;-44
2022/04/25 00:12:15;;;;;;;7.47;6.67;;;;;;;10.22;59.03;98751.82;1781307;79;21044;-44
2022/04/25 00:14:42;;;;;;;8.53;7.10;;;;;;;10.23;59.02;98750.67;1774168;79;21549;-43
2022/04/25 00:17:09;;;;;;;8.23;6.15;;;;;;;10.21;59.08;98747.00;1793421;80;20937;-44
2022/04/25 00:19:36;;;;;;;7.78;6.33;;;;;;;10.25;59.08;98744.32;1787872;79;21537;-44
2022/04/25 00:22:04;;;;;;;7.42;5.80;;;;;;;10.31;59.06;98746.30;1789699;80;21008;-44
2022/04/25 00:24:33;;;;;;;8.25;6.40;;;;;;;10.36;58.91;98743.86;1788458;79;20988;-44
2022/04/25 00:27:01;;;;;;;7.72;6.70;;;;;;;10.39;58.78;98750.66;1786181;79;21201;-44
2022/04/25 00:29:28;;;;;;;7.25;6.55;;;;;;;10.42;58.78;98747.77;1785202;79;20924;-44
2022/04/25 00:31:55;;;;;;;7.35;6.62;;;;;;;10.44;58.73;98749.55;1788514;79;21040;-44
2022/04/25 00:34:23;;;;;;;7.80;6.92;;;;;;;10.48;58.65;98747.64;1786112;79;21475;-44
2022/04/25 00:39:18;;;;;;;8.83;7.22;;;;;;;10.52;58.74;98732.19;1830458;78;23982;-44
2022/04/25 00:41:46;;;;;;;8.10;6.60;;;;;;;10.40;58.94;98726.48;1803390;79;20927;-44
2022/04/25 00:44:13;;;;;;;7.70;6.78;;;;;;;10.44;58.94;98725.16;1803163;79;21244;-44
2022/04/25 00:46:40;;;;;;;7.87;7.03;;;;;;;10.43;58.92;98716.81;1803252;79;21006;-43
2022/04/25 00:49:08;;;;;;;9.98;7.67;;;;;;;10.43;59.03;98716.81;1803129;79;20963;-43
2022/04/25 00:51:36;;;;;;;8.20;7.28;;;;;;;10.41;59.09;98715.05;1803038;79;20959;-43
2022/04/25 00:54:03;;;;;;;9.68;7.53;;;;;;;10.39;59.09;98710.02;1803304;79;20983;-44
2022/04/25 00:56:30;;;;;;;7.45;6.60;;;;;;;10.39;59.04;98716.79;1803131;79;21201;-43
2022/04/25 00:58:58;;;;;;;7.58;6.35;;;;;;;10.40;59.05;98713.51;1803102;79;21640;-43
2022/04/25 01:01:25;;;;;;;8.58;7.30;;;;;;;10.39;59.05;98709.23;1803318;79;21019;-43
2022/04/25 01:03:53;;;;;;;7.85;6.83;;;;;;;10.41;59.17;98704.98;1802997;79;20931;-43
2022/04/25 01:06:20;;;;;;;9.00;6.95;;;;;;;10.43;59.13;98710.04;1803285;79;20934;-44
2022/04/25 01:08:46;;;;;;;8.00;6.67;;;;;;;10.45;59.15;98707.75;1803225;79;22036;-44
2022/04/25 01:11:13;;;;;;;7.90;6.70;;;;;;;10.48;59.09;98709.70;1803141;79;21013;-43
2022/04/25 01:13:43;;;;;;;7.20;6.37;;;;;;;10.50;59.07;98701.98;1772836;79;20963;-44
2022/04/25 01:16:10;;;;;;;9.55;6.90;;;;;;;10.53;58.92;98697.16;1803066;79;20923;-44
2022/04/25 01:18:37;;;;;;;7.22;6.03;;;;;;;10.57;58.84;98702.03;1803588;79;21458;-43
2022/04/25 01:21:03;;;;;;;7.28;6.28;;;;;;;10.59;58.77;98697.02;1803295;79;21171;-43
2022/04/25 01:29:01;;;;;;;7.25;6.37;;;;;;;10.61;58.72;98679.80;1803317;79;21082;-43
2022/04/25 01:31:30;;;;;;;7.42;6.33;;;;;;;10.60;58.94;98676.13;1803438;79;20938;-44
2022/04/25 01:33:56;;;;;;;6.95;6.22;;;;;;;10.60;58.94;98676.13;1803161;79;21177;-44
2022/04/25 01:36:24;;;;;;;6.83;6.03;;;;;;;10.59;58.57;98682.12;1803134;79;20983;-43
2022/04/25 01:38:53;;;;;;;6.50;5.87;;;;;;;10.59;58.44;98684.83;1790165;79;21596;-43
2022/04/25 01:41:21;;;;;;;8.60;6.20;;;;;;;10.59;58.11;98686.19;1784923;80;21005;-43
2022/04/25 01:43:47;;;;;;;7.72;5.95;;;;;;;10.60;58.24;98687.72;1785082;80;21016;-43
2022/04/25 01:46:15;;;;;;;8.18;6.42;;;;;;;10.61;58.17;98683.86;1784904;79;20924;-43
2022/04/25 01:48:43;;;;;;;7.70;5.90;;;;;;;10.62;58.09;98684.06;1783448;79;20970;-43
2022/04/25 01:51:11;;;;;;;6.60;5.87;;;;;;;10.63;58.07;98676.72;1784314;79;21040;-43
2022/04/25 01:53:39;;;;;;;6.45;5.85;;;;;;;10.62;58.09;98671.87;1784635;80;20964;-43
2022/04/25 01:56:07;;;;;;;6.67;5.83;;;;;;;10.64;58.05;98670.14;1784306;80;21022;-43
2022/04/25 01:58:34;;;;;;;7.03;6.15;;;;;;;10.66;58.09;98675.37;1784446;80;21119;-43
2022/04/25 02:01:01;;;;;;;7.03;5.92;;;;;;;10.65;58.04;98673.81;1784581;79;20962;-43
2022/04/25 02:03:27;;;;;;;8.13;6.00;;;;;;;10.67;58.01;98674.23;1764729;80;20963;-43
2022/04/25 02:05:55;;;;;;;7.25;6.42;;;;;;;10.68;58.01;98669.02;1784293;79;21073;-44
2022/04/25 02:08:24;;;;;;;6.67;5.95;;;;;;;10.69;57.95;98674.64;1784623;80;21022;-44
2022/04/25 02:13:37;;;;;;;6.12;5.47;;;;;;;10.69;57.99;98670.58;1784577;79;21006;-43
2022/04/25 02:16:05;;;;;;;8.40;5.70;;;;;;;10.69;57.93;98669.22;1784391;80;21540;-44
2022/04/25 02:18:32;;;;;;;6.50;5.55;;;;;;;10.69;57.99;98658.95;1784512;80;21540;-44
2022/04/25 02:20:59;;;;;;;6.42;5.67;;;;;;;10.68;58.05;98658.17;1784291;80;21030;-43
2022/04/25 02:23:26;;;;;;;6.33;5.67;;;;;;;10.70;57.86;98659.13;1784476;79;21230;-44
2022/04/25 02:25:53;;;;;;;7.45;6.08;;;;;;;10.71;57.92;98656.62;1784361;80;21013;-43
2022/04/25 02:28:20;;;;;;;6.85;6.12;;;;;;;10.71;57.97;98641.14;1784403;80;21035;-44
2022/04/25 02:30:47;;;;;;;7.10;6.15;;;;;;;10.71;57.94;98653.34;1784439;79;21002;-44
2022/04/25 02:33:15;;;;;;;8.88;6.08;;;;;;;10.70;57.84;98647.71;1784443;80;20966;-44
2022/04/25 02:35:42;;;;;;;6.15;5.50;;;;;;;10.69;57.82;98647.53;1784584;80;21777;-43
2022/04/25 02:38:08;;;;;;;7.47;5.80;;;;;;;10.68;57.76;98642.48;1784142;79;21066;-43
2022/04/25 02:40:35;;;;;;;7.33;5.70;;;;;;;10.69;57.81;98646.75;1784323;80;21520;-43
2022/04/25 02:43:04;;;;;;;6.15;5.55;;;;;;;10.67;57.76;98649.05;1784484;80;20936;-44
2022/04/25 02:45:31;;;;;;;6.72;5.33;;;;;;;10.66;57.63;98652.91;1784408;80;20998;-43
2022/04/25 02:47:59;;;;;;;7.45;5.28;;;;;;;10.66;57.56;98655.05;1784376;79;20920;-44
2022/04/25 02:50:26;;;;;;;7.17;5.25;;;;;;;10.67;57.52;98649.83;1784289;80;20998;-43
2022/04/25 02:52:54;;;;;;;6.37;5.28;;;;;;;10.69;57.52;98652.17;1784387;80;20915;-43
2022/04/25 02:55:21;;;;;;;6.05;5.15;;;;;;;10.71;57.50;98639.78;1784320;80;20955;-44
2022/04/25 02:57:49;;;;;;;6.42;5.40;;;;;;;10.72;57.34;98644.06;1784493;79;20999;-43
2022/04/25 03:00:18;;;;;;;6.90;5.50;;;;;;;10.73;57.44;98652.40;1784818;79;21775;-42
2022/04/25 03:02:45;;;;;;;6.08;5.33;;;;;;;10.75;57.21;98654.14;1784448;80;21513;-42
2022/04/25 03:05:12;;;;;;;6.08;5.28;;;;;;;10.77;57.11;98669.46;1784390;79;20923;-42
2022/04/25 03:07:40;;;;;;;7.75;6.85;;;;;;;10.78;58.85;98708.98;1784458;79;21018;-42
2022/04/25 03:10:08;;;;;;;6.87;6.17;;;;;;;10.72;59.60;98683.37;1784569;79;21341;-42
2022/04/25 03:12:38;;;;;;;8.18;6.37;;;;;;;10.69;59.80;98713.95;1784513;79;20987;-42
2022/04/25 03:15:08;;;;;;;7.12;6.35;;;;;;;10.69;60.33;98703.69;1784235;80;20927;-43
2022/04/25 03:17:34;;;;;;;7.40;6.53;;;;;;;10.71;60.12;98668.25;1784430;80;20974;-42
2022/04/25 03:20:01;;;;;;;7.95;6.47;;;;;;;10.73;60.28;98657.05;1784132;79;20974;-42
2022/04/25 03:22:30;;;;;;;6.97;6.25;;;;;;;10.76;60.22;98663.84;1784381;79;20885;-43
2022/04/25 03:24:56;;;;;;;7.22;6.17;;;;;;;10.81;60.13;98668.91;1784213;80;21226;-42
2022/04/25 03:27:23;;;;;;;6.80;6.10;;;;;;;10.84;60.43;98674.92;1784371;79;20931;-42
2022/04/25 03:29:51;;;;;;;8.28;7.17;;;;;;;10.83;60.76;98653.05;1784188;80;20956;-42
2022/04/25 03:32:18;;;;;;;7.22;6.50;;;;;;;10.85;60.59;98632.31;1784220;79;21017;-42
2022/04/25 03:34:46;;;;;;;7.12;6.42;;;;;;;10.88;60.66;98645.14;1784470;80;21018;-42
2022/04/25 03:37:13;;;;;;;7.50;6.42;;;;;;;10.87;60.68;98632.15;1784166;80;21253;-43
2022/04/25 03:39:41;;;;;;;8.00;6.67;;;;;;;10.86;60.68;98637.37;1784085;78;20919;-42
2022/04/25 03:42:10;;;;;;;7.17;6.20;;;;;;;10.89;60.70;98644.73;1784286;80;21009;-42
2022/04/25 03:44:39;;;;;;;6.67;5.97;;;;;;;10.88;60.77;98623.44;1784517;79;21013;-42
2022/04/25 03:47:08;;;;;;;8.23;6.17;;;;;;;10.87;60.81;98611.81;1784427;80;20990;-43
2022/04/25 03:49:35;;;;;;;9.28;6.28;;;;;;;10.88;60.78;98617.44;1784470;80;21162;-43
2022/04/25 03:52:04;;;;;;;8.25;6.80;;;;;;;10.92;60.62;98624.81;1784344;79;20934;-43
2022/04/25 03:57:15;;;;;;;7.90;6.78;;;;;;;11.00;60.52;98609.55;1758079;80;21007;-43
2022/04/25 03:59:42;;;;;;;8.33;7.17;;;;;;;10.98;60.71;98606.45;1785011;79;21034;-43
2022/04/25 04:02:09;;;;;;;9.33;7.97;;;;;;;10.96;60.78;98599.84;1784456;79;23106;-44
2022/04/25 04:04:36;;;;;;;8.18;7.15;;;;;;;10.93;60.87;98586.47;1784388;80;20994;-44
2022/04/25 04:07:04;;;;;;;9.43;7.60;;;;;;;10.92;60.95;98593.63;1784399;80;21040;-43
2022/04/25 04:09:46;;;;;;;9.88;7.62;;;;;;;10.90;61.01;98588.00;1784721;80;20951;-44
2022/04/25 04:12:15;;;;;;;7.00;6.30;;;;;;;10.93;61.19;98591.12;1784389;80;21010;-44
2022/04/25 04:14:43;;;;;;;6.50;5.90;;;;;;;10.97;61.21;98594.62;1784612;80;21071;-43
2022/04/25 04:17:11;;;;;;;7.72;5.80;;;;;;;11.04;61.23;98599.48;1784122;79;21386;-43
2022/04/25 04:19:41;;;;;;;7.25;6.35;;;;;;;11.12;61.02;98600.31;1784215;79;20992;-43
2022/04/25 04:22:08;;;;;;;7.12;5.97;;;;;;;11.18;60.65;98594.73;1784207;79;20963;-43
2022/04/25 04:24:35;;;;;;;7.45;6.10;;;;;;;11.22;60.44;98593.58;1784248;80;21050;-43
2022/04/25 04:27:05;;;;;;;6.67;5.85;;;;;;;11.27;60.16;98599.22;1784263;79;20959;-43
2022/04/25 04:29:32;;;;;;;6.78;5.67;;;;;;;11.31;59.95;98602.72;1784251;79;20955;-43
2022/04/25 04:32:02;;;;;;;6.45;5.83;;;;;;;11.34;59.79;98602.72;1784229;80;20966;-43
2022/04/25 04:34:31;;;;;;;7.25;5.62;;;;;;;11.39;59.49;98594.00;1784275;79;21066;-44
2022/04/25 04:36:59;;;;;;;6.80;5.78;;;;;;;11.40;59.40;98590.92;1784244;79;20896;-43
2022/04/25 04:39:25;;;;;;;8.48;6.17;;;;;;;11.43;59.39;98586.07;1784335;79;21240;-44
2022/04/25 04:41:53;;;;;;;7.05;6.05;;;;;;;11.46;59.33;98581.25;1784343;80;21513;-43
2022/04/25 04:44:20;;;;;;;8.95;6.15;;;;;;;11.50;59.40;98577.95;1784230;80;21031;-43
2022/04/25 04:46:47;;;;;;;7.55;6.15;;;;;;;11.55;59.46;98578.94;1778505;78;21565;-44
2022/04/25 04:49:16;;;;;;;6.37;5.70;;;;;;;11.58;59.34;98569.23;1777836;80;20944;-43
2022/04/25 04:51:43;;;;;;;6.45;5.62;;;;;;;11.60;59.17;98568.28;1777776;80;21215;-43
2022/04/25 04:54:10;;;;;;;6.15;5.28;;;;;;;11.62;59.18;98570.02;1777860;80;20949;-43
2022/04/25 04:56:38;;;;;;;7.62;5.17;;;;;;;11.67;59.13;98564.98;1777960;80;22060;-43
2022/04/25 04:59:05;;;;;;;10.75;5.60;;;;;;;11.75;59.11;98573.97;1777995;80;21056;-43
2022/04/25 05:01:33;;;;;;;6.92;5.40;;;;;;;11.85;59.09;98563.70;1778190;80;21083;-44
2022/04/25 05:04:00;;;;;;;5.67;4.70;;;;;;;12.00;58.89;98563.13;1777930;80;21233;-43
2022/04/25 05:06:28;;;;;;;6.55;5.28;;;;;;;12.10;58.78;98574.58;1777998;80;20929;-43
2022/04/25 05:08:55;;;;;;;7.28;5.20;;;;;;;12.20;58.28;98571.06;1778163;80;21031;-43
2022/04/25 05:11:23;;;;;;;6.30;5.70;;;;;;;12.28;57.58;98571.27;1778102;80;20945;-43
2022/04/25 05:13:51;;;;;;;7.22;5.50;;;;;;;12.37;57.31;98577.09;1778078;80;21013;-43
2022/04/25 05:16:17;;;;;;;6.70;5.20;;;;;;;12.44;57.07;98572.98;1777711;80;21205;-43
2022/04/25 05:18:45;;;;;;;7.72;5.47;;;;;;;12.51;57.01;98575.70;1777847;80;21573;-43
2022/04/25 05:21:13;;;;;;;6.40;5.28;;;;;;;12.60;57.14;98580.73;1777647;80;21027;-43
2022/04/25 05:23:42;;;;;;;6.55;5.22;;;;;;;12.70;56.92;98577.22;1777907;80;21005;-43
2022/04/25 05:26:09;;;;;;;5.90;4.87;;;;;;;12.81;57.01;98575.84;1778377;80;21044;-42
2022/04/25 05:28:37;;;;;;;7.87;5.42;;;;;;;12.89;56.75;98580.08;1778094;80;21060;-43
2022/04/25 05:31:05;;;;;;;7.28;5.47;;;;;;;12.98;56.71;98575.00;1777772;80;21502;-43
2022/04/25 05:33:32;;;;;;;5.65;5.03;;;;;;;13.02;56.32;98583.95;1747887;80;21007;-43
2022/04/25 05:35:59;;;;;;;7.72;4.95;;;;;;;13.06;56.43;98571.10;1777843;80;21540;-42
2022/04/25 05:38:27;;;;;;;7.08;4.97;;;;;;;13.13;56.89;98567.00;1778019;80;21476;-43
2022/04/25 05:40:54;;;;;;;6.00;5.08;;;;;;;13.20;57.07;98556.09;1783521;80;21098;-42
2022/04/25 05:43:23;;;;;;;6.97;5.30;;;;;;;13.30;56.95;98556.64;1783690;80;20924;-44
2022/04/25 05:45:49;;;;;;;5.72;4.90;;;;;;;13.40;57.08;98558.53;1783828;80;20937;-44
2022/04/25 05:53:46;;;;;;;8.13;5.45;;;;;;;13.59;57.58;98542.86;1777983;80;21228;-43
2022/04/25 05:56:13;;;;;;;7.90;5.42;;;;;;;13.66;57.56;98538.71;1752803;81;21495;-44
2022/04/25 05:58:42;;;;;;;6.97;5.50;;;;;;;13.73;57.80;98536.73;1752956;81;20983;-44
2022/04/25 06:01:08;;;;;;;6.97;5.60;;;;;;;13.82;58.13;98521.28;1752945;81;21031;-43
2022/04/25 06:03:35;;;;;;;6.55;5.85;;;;;;;13.90;57.88;98520.05;1752875;81;21064;-44
2022/04/25 06:06:02;;;;;;;7.85;5.70;;;;;;;13.97;57.64;98521.95;1725071;81;21226;-44
2022/04/25 06:08:30;;;;;;;8.73;5.25;;;;;;;14.02;57.97;98505.95;1777744;80;20933;-44
2022/04/25 06:10:56;;;;;;;10.40;6.05;;;;;;;14.08;58.09;98501.62;1784899;80;20917;-43
2022/04/25 06:13:25;;;;;;;9.15;6.47;;;;;;;14.17;58.40;98492.37;1784927;79;21044;-43
2022/04/25 06:15:52;;;;;;;15.23;6.10;;;;;;;14.30;58.40;98490.69;1784929;80;21055;-44
2022/04/25 06:18:22;;;;;;;7.62;5.50;;;;;;;14.46;57.93;98492.89;1784895;79;21518;-43
2022/04/25 06:20:50;;;;;;;9.53;5.90;;;;;;;14.60;58.02;98496.05;1784945;80;20965;-44
2022/04/25 06:23:18;;;;;;;7.12;5.72;;;;;;;14.72;57.89;98505.06;1785007;80;21020;-44
2022/04/25 06:25:46;;;;;;;8.40;6.08;;;;;;;14.82;57.79;98494.61;1785022;80;21083;-44
2022/04/25 06:28:13;;;;;;;8.58;6.22;;;;;;;14.92;57.83;98485.52;1784823;80;21051;-44
2022/04/25 06:30:40;;;;;;;7.67;5.75;;;;;;;15.01;57.67;98477.60;1784982;80;21102;-44
2022/04/25 06:33:09;;;;;;;7.87;5.67;;;;;;;15.11;57.79;98484.11;1785392;79;20968;-44
2022/04/25 06:35:36;;;;;;;11.18;6.33;;;;;;;15.26;57.46;98514.72;1785103;80;20945;-44
2022/04/25 06:38:02;;;;;;;7.85;6.05;;;;;;;15.40;57.66;98539.11;1785146;80;21087;-44
2022/04/25 06:40:31;;;;;;;11.68;6.80;;;;;;;15.53;58.14;98508.73;1768919;79;21492;-44
2022/04/25 06:42:59;;;;;;;11.10;6.20;;;;;;;15.63;57.66;98500.37;1760369;81;21249;-44
2022/04/25 06:45:28;;;;;;;6.97;5.42;;;;;;;15.72;57.09;98507.27;1760250;80;20978;-43
2022/04/25 06:47:57;;;;;;;10.05;7.05;;;;;;;15.80;57.22;98519.04;1760511;80;21555;-43
2022/04/25 06:50:23;;;;;;;8.95;6.40;;;;;;;15.86;56.21;98538.48;1760245;81;21023;-44
2022/04/25 06:52:50;;;;;;;9.15;6.20;;;;;;;15.83;55.77;98499.06;1760388;81;21076;-44
2022/04/25 06:55:18;;;;;;;8.48;6.50;;;;;;;15.79;55.76;98495.62;1760466;81;22167;-44
2022/04/25 06:57:44;;;;;;;9.08;6.28;;;;;;;15.74;56.13;98498.83;1760342;81;20961;-44
2022/04/25 07:00:12;;;;;;;10.75;7.00;;;;;;;15.73;56.47;98499.27;1760218;80;21089;-44
2022/04/25 07:02:42;;;;;;;9.55;6.92;;;;;;;15.70;56.10;98487.77;1760485;80;21499;-44
2022/04/25 07:05:09;;;;;;;10.82;7.03;;;;;;;15.65;56.50;98490.38;1760230;80;21014;-44
2022/04/25 07:07:38;;;;;;;9.50;7.00;;;;;;;15.59;56.88;98485.20;1760438;80;20939;-44
2022/04/25 07:10:07;;;;;;;8.83;6.45;;;;;;;15.56;57.06;98487.41;1760468;81;21010;-44
2022/04/25 07:12:35;;;;;;;;;;;;;;;15.51;56.97;98496.84;1763448;80;21540;-44
2022/04/25 07:15:04;;;;;;;9.63;6.50;;;;;;;15.49;57.36;98507.36;1760544;81;20184;-44
2022/04/25 07:17:32;;;;;;;;;;;;;;;15.42;57.90;98513.53;1763209;80;21029;-43
2022/04/25 07:19:59;;;;;;;11.33;6.80;;;;;;;15.44;58.13;98514.66;1760431;81;21129;-43
2022/04/25 07:30:42;;;;;;;11.30;6.90;;;;;;;15.62;58.47;98507.61;1758098;81;21011;-43
2022/04/25 07:33:09;;;;;;;8.93;6.80;;;;;;;15.70;58.46;98503.58;1747811;82;23093;-42
2022/04/25 07:35:39;;;;;;;8.90;6.62;;;;;;;15.80;58.31;98502.64;1747759;82;20963;-43
2022/04/25 07:38:07;;;;;;;9.80;6.50;;;;;;;15.88;58.28;98508.16;1748185;81;21469;-43
2022/04/25 07:40:36;;;;;;;10.32;7.03;;;;;;;15.95;58.38;98499.86;1747943;81;20927;-43
2022/04/25 07:43:03;;;;;;;8.98;6.47;;;;;;;16.05;57.95;98507.70;1747976;82;21026;-43
2022/04/25 07:45:30;;;;;;;8.38;6.53;;;;;;;16.14;57.77;98506.57;1748036;82;21090;-43
2022/04/25 07:47:57;;;;;;;8.58;6.78;;;;;;;16.24;58.04;98510.31;1747660;82;20939;-42
2022/04/25 07:50:25;;;;;;;8.18;6.30;;;;;;;16.34;58.06;98514.83;1747844;81;21011;-42
2022/04/25 07:52:53;;;;;;;11.12;7.55;;;;;;;16.43;58.32;98521.88;1747987;81;21022;-43
2022/04/25 07:55:21;;;;;;;9.63;7.05;;;;;;;16.53;57.93;98521.70;1748191;82;21089;-43
2022/04/25 07:57:48;;;;;;;8.70;6.55;;;;;;;16.63;57.45;98521.94;1748164;82;21133;-44
2022/04/25 08:00:16;;;;;;;11.53;7.25;;;;;;;16.79;57.64;98517.92;1748197;81;21584;-43
2022/04/25 08:02:45;;;;;;;9.43;7.40;;;;;;;17.04;57.34;98516.06;1748327;81;20978;-43
2022/04/25 08:05:11;;;;;;;10.70;7.62;;;;;;;17.32;56.38;98519.56;1747972;82;20943;-44
2022/04/25 08:07:38;;;;;;;9.60;7.10;;;;;;;17.57;56.38;98524.50;1748024;81;21362;-43
2022/04/25 08:10:07;;;;;;;11.33;6.95;;;;;;;17.80;56.19;98537.48;1747870;81;20955;-44
2022/04/25 08:18:06;;;;;;;9.10;7.08;;;;;;;17.92;55.09;98521.53;1747860;81;20979;-43
2022/04/25 08:20:37;;;;;;;11.12;7.35;;;;;;;17.84;55.25;98545.63;1747884;81;21010;-43
2022/04/25 08:23:09;;;;;;;11.05;7.47;;;;;;;17.74;55.30;98535.67;1747832;82;21236;-44
2022/04/25 08:25:38;;;;;;;8.78;7.40;;;;;;;17.67;56.00;98526.25;1748140;81;20975;-44
2022/04/25 08:28:07;;;;;;;13.05;6.87;;;;;;;17.67;56.45;98523.52;1748193;81;21016;-44
2022/04/25 08:30:35;;;;;;;9.33;7.05;;;;;;;17.79;55.96;98520.86;1748153;82;21008;-43
2022/04/25 08:33:02;;;;;;;8.90;7.12;;;;;;;17.96;56.12;98514.02;1747797;82;21019;-43
2022/04/25 08:35:30;;;;;;;10.53;7.10;;;;;;;18.18;55.45;98514.42;1747843;81;21014;-43
2022/04/25 08:37:57;;;;;;;10.15;7.10;;;;;;;18.46;55.14;98513.50;1747825;82;20939;-43
2022/04/25 08:40:25;;;;;;;11.05;7.37;;;;;;;18.71;54.15;98510.89;1747864;81;21084;-43
2022/04/25 08:42:53;;;;;;;7.58;6.45;;;;;;;18.88;53.65;98512.99;1748408;82;21549;-43
2022/04/25 08:45:21;;;;;;;9.93;6.60;;;;;;;18.94;53.52;98507.88;1748126;82;21072;-43
2022/04/25 08:47:55;;;;;;;9.25;7.42;;;;;;;18.96;53.49;98514.33;1748121;81;21202;-43
2022/04/25 08:50:24;;;;;;;9.73;6.78;;;;;;;18.94;52.75;98518.88;1748067;81;20888;-43
2022/04/25 08:52:52;;;;;;;10.63;6.75;;;;;;;18.89;53.22;98515.88;1747954;81;21545;-43
2022/04/25 08:55:21;;;;;;;10.10;7.67;;;;;;;18.85;53.67;98513.84;1748206;81;21002;-44
2022/04/25 08:57:51;;;;;;;10.05;7.25;;;;;;;18.83;53.61;98519.77;1748161;81;20974;-43
2022/04/25 09:00:18;;;;;;;10.10;6.62;;;;;;;18.85;53.63;98522.86;1748123;82;21176;-44
2022/04/25 09:02:49;;;;;;;12.37;6.58;;;;;;;18.87;53.83;98515.56;1747941;81;20928;-44
2022/04/25 09:05:17;;;;;;;10.85;6.90;;;;;;;18.88;53.62;98523.34;1748088;82;21078;-44
2022/04/25 09:07:44;;;;;;;12.85;7.42;;;;;;;18.85;53.45;98524.83;1748094;81;21006;-44
2022/04/25 09:10:17;;;;;;;11.70;7.25;;;;;;;18.77;54.16;98539.38;1748028;81;21518;-44
2022/04/25 09:12:49;;;;;;;9.58;6.70;;;;;;;18.68;53.93;98533.73;1748403;81;20983;-44
2022/04/25 09:15:20;;;;;;;10.63;7.70;;;;;;;18.62;54.27;98533.49;1748027;82;20979;-44
2022/04/25 09:17:48;;;;;;;9.03;6.90;;;;;;;18.52;54.47;98537.26;1748212;82;21002;-44
2022/04/25 09:20:15;;;;;;;11.15;7.65;;;;;;;18.44;55.23;98536.51;1748207;82;21004;-44
2022/04/25 09:22:43;;;;;;;9.63;6.92;;;;;;;18.39;55.26;98538.41;1737826;82;21081;-44
2022/04/25 09:25:15;;;;;;;10.68;6.95;;;;;;;18.35;55.82;98532.98;1748132;82;21292;-44
2022/04/25 09:27:42;;;;;;;10.30;6.70;;;;;;;18.32;55.85;98544.83;1748528;82;28196;-44
2022/04/25 09:30:21;;;;;;;14.18;7.70;;;;;;;18.29;55.93;98536.10;1748053;82;21544;-44
2022/04/25 09:32:52;;;;;;;8.43;6.42;;;;;;;18.28;56.17;98534.55;1748072;81;20991;-44
2022/04/25 09:35:29;;;;;;;11.33;7.40;;;;;;;18.32;56.59;98539.34;1748184;82;21023;-44
2022/04/25 09:37:57;;;;;;;9.45;6.85;;;;;;;18.36;56.07;98541.39;1747897;82;23105;-44
2022/04/25 09:40:31;;;;;;;11.70;6.90;;;;;;;18.40;56.52;98543.44;1748019;81;21646;-44
2022/04/25 09:43:12;;;;;;;9.80;7.08;;;;;;;18.44;56.26;98544.14;1747999;82;20935;-44
2022/04/25 09:45:42;;;;;;;11.53;7.65;;;;;;;18.51;56.26;98532.97;1747938;82;21071;-44
2022/04/25 09:48:23;;;;;;;8.78;6.72;;;;;;;18.59;56.51;98524.73;1747953;81;21031;-44
2022/04/25 09:51:07;;;;;;;9.73;7.40;;;;;;;18.75;56.62;98528.64;1747912;81;20975;-44
2022/04/25 09:53:53;;;;;;;8.43;7.35;;;;;;;18.94;54.54;98524.96;1747874;81;21494;-44
2022/04/25 09:56:22;;;;;;;9.40;7.12;;;;;;;19.05;54.49;98524.06;1747977;81;21051;-44
2022/04/25 09:59:07;;;;;;;12.00;7.63;;;;;;;19.11;53.56;98526.45;1748711;81;21023;-44
2022/04/25 10:01:37;;;;;;;16.07;7.87;;;;;;;19.11;53.66;98534.69;1748294;82;21043;-44
2022/04/25 10:04:05;;;;;;;10.23;8.18;;;;;;;19.06;54.08;98526.39;1748452;82;21243;-43
2022/04/25 10:06:36;;;;;;;9.23;8.20;;;;;;;19.07;54.21;98527.91;1748341;82;20935;-44
2022/04/25 10:09:08;;;;;;;9.13;7.47;;;;;;;19.10;54.10;98522.93;1748262;81;20946;-44
2022/04/25 10:11:39;;;;;;;12.40;8.10;;;;;;;19.15;54.20;98517.50;1748066;81;20990;-44
2022/04/25 10:14:05;;;;;;;10.43;7.97;;;;;;;19.21;54.07;98513.01;1747951;82;20999;-44
2022/04/25 10:16:34;;;;;;;9.88;8.05;;;;;;;19.27;53.85;98508.48;1747978;81;21505;-44
2022/04/25 10:19:03;;;;;;;12.60;8.05;;;;;;;19.29;53.73;98504.70;1748089;81;21043;-44
2022/04/25 10:21:31;;;;;;;12.60;7.95;;;;;;;19.33;53.93;98505.37;1747967;82;21030;-44
2022/04/25 10:23:58;;;;;;;10.13;7.62;;;;;;;19.41;54.02;98513.55;1748239;82;20936;-44
2022/04/25 10:26:27;;;;;;;12.43;7.37;;;;;;;19.60;53.65;98517.36;1747982;81;20967;-44
2022/04/25 10:28:59;;;;;;;8.58;7.15;;;;;;;19.88;52.64;98529.44;1748092;81;20947;-44
2022/04/25 10:31:31;;;;;;;10.28;6.95;;;;;;;20.14;51.60;98526.05;1748194;81;21525;-44
2022/04/25 10:34:02;;;;;;;11.30;7.28;;;;;;;20.32;50.87;98520.74;1748109;81;21037;-44
2022/04/25 10:36:43;;;;;;;11.60;7.47;;;;;;;20.49;50.67;98526.23;1748291;82;21011;-44
2022/04/25 10:39:25;;;;;;;8.73;6.58;;;;;;;20.61;50.39;98523.28;1748262;82;21007;-44
2022/04/25 10:44:53;;;;;;;9.23;7.17;;;;;;;20.63;49.61;98520.84;1753381;81;20991;-44
2022/04/25 10:47:24;;;;;;;17.20;7.15;;;;;;;20.70;49.67;98520.60;1753334;81;20979;-44
2022/04/25 10:50:02;;;;;;;8.78;5.53;;;;;;;20.79;49.75;98516.53;1753178;81;20970;-44
2022/04/25 10:53:00;;;;;;;8.75;6.10;;;;;;;20.92;49.34;98517.23;1753641;81;21520;-44
2022/04/25 10:55:30;;;;;;;10.23;5.60;;;;;;;21.07;47.63;98515.49;1742204;81;21237;-44
2022/04/25 10:58:11;;;;;;;12.18;6.30;;;;;;;21.34;47.53;98517.68;1753435;81;20900;-44
2022/04/25 11:00:45;;;;;;;11.38;5.75;;;;;;;21.66;45.94;98515.05;1766335;81;21556;-44
2022/04/25 11:03:25;;;;;;;10.85;4.78;;;;;;;21.73;45.18;98523.67;1768265;81;21477;-44
2022/04/25 11:06:02;;;;;;;11.35;5.00;;;;;;;21.60;44.15;98527.28;1768425;81;21552;-44
2022/04/25 11:08:33;;;;;;;10.75;5.30;;;;;;;21.42;44.69;98528.59;1768679;81;21149;-44
2022/04/25 11:11:20;;;;;;;11.05;5.15;;;;;;;21.31;44.48;98524.69;1702705;84;20963;-44
2022/04/25 11:14:01;;;;;;;9.80;5.45;;;;;;;21.36;45.26;98528.23;1714144;83;21025;-44
2022/04/25 11:16:26;;;;;;;10.70;5.37;;;;;;;21.47;45.17;98527.23;1767657;81;21659;-44
2022/04/25 11:19:13;;;;;;;;;;;;;;;21.54;44.57;98521.45;1742368;81;22049;-44
2022/04/25 11:21:49;;;;;;;8.20;5.17;;;;;;;21.59;45.16;98518.84;1768372;80;20157;-44
2022/04/25 11:24:39;;;;;;;10.15;4.90;;;;;;;21.64;44.99;98518.86;1768574;81;21539;-44
2022/04/25 11:27:05;;;;;;;8.75;5.25;;;;;;;21.73;44.75;98516.16;1767992;81;20978;-44
2022/04/25 11:29:32;;;;;;;7.90;5.10;;;;;;;21.68;45.34;98523.66;1768786;81;21055;-43
2022/04/25 11:32:24;;;;;;;11.05;4.95;;;;;;;21.66;44.38;98519.19;1768202;81;21011;-43
2022/04/25 11:34:53;;;;;;;10.85;6.03;;;;;;;21.52;43.96;98519.75;1715079;83;21021;-43
2022/04/25 11:37:22;;;;;;;11.00;5.90;;;;;;;21.37;44.17;98522.89;1721143;83;21020;-43
2022/04/25 11:39:59;;;;;;;10.32;4.78;;;;;;;21.22;45.07;98519.90;1721296;82;21026;-43
2022/04/25 11:42:31;;;;;;;7.87;4.80;;;;;;;21.07;44.88;98516.88;1714928;83;21085;-43
2022/04/25 11:44:58;;;;;;;9.68;5.03;;;;;;;20.91;45.18;98510.81;1684354;83;21069;-44
2022/04/25 11:47:25;;;;;;;9.38;4.75;;;;;;;20.77;45.26;98507.94;1713359;83;23126;-43
2022/04/25 11:49:56;;;;;;;10.15;4.95;;;;;;;20.70;46.07;98501.32;1713444;83;21065;-44
2022/04/25 11:52:26;;;;;;;8.73;5.05;;;;;;;20.70;46.01;98493.83;1713821;83;21033;-43
2022/04/25 11:54:54;;;;;;;12.50;4.97;;;;;;;20.75;46.31;98491.11;1713510;83;20973;-43
2022/04/25 11:57:21;;;;;;;8.50;4.45;;;;;;;20.80;46.72;98493.28;1713249;83;21065;-43
2022/04/25 12:00:10;;;;;;;11.10;4.97;;;;;;;20.92;46.14;98495.80;1713193;83;20977;-43
2022/04/25 12:02:39;;;;;;;9.38;5.28;;;;;;;21.01;46.33;98499.37;1688884;83;21044;-43
2022/04/25 12:05:07;;;;;;;10.72;5.17;;;;;;;21.04;46.63;98503.23;1713098;83;21051;-43
2022/04/25 12:07:37;;;;;;;8.68;5.20;;;;;;;21.05;46.52;98506.92;1713293;83;21026;-43
2022/04/25 12:15:40;;;;;;;9.48;5.22;;;;;;;20.86;46.70;98508.03;1713252;83;21061;-43
2022/04/25 12:18:28;;;;;;;8.88;5.20;;;;;;;20.82;47.25;98505.38;1713225;83;20946;-43
2022/04/25 12:21:10;;;;;;;7.97;5.45;;;;;;;20.83;47.23;98503.39;1713380;83;21029;-44
2022/04/25 12:23:43;;;;;;;11.90;5.22;;;;;;;20.87;47.25;98506.02;1713219;83;21026;-44